Time;durP1;ratioP1;P1;durP2;ratioP2;P2;SDS_P1;SDS_P2;PMS_P1;PMS_P2;Temp;Humidity;BMP_temperature;BMP_pressure;BME280_temperature;BME280_humidity;BME280_pressure;Samples;Min_cycle;Max_cycle;Signal;HPM_P1;HPM_P2
2022/06/09 00:01:49;;;;;;;1.67;1.50;;;17.30;99.90;;;;;;5033191;28;20446;-59
2022/06/09 00:04:20;;;;;;;1.73;1.40;;;17.20;99.90;;;;;;5033439;28;20427;-59
2022/06/09 00:06:57;;;;;;;1.60;1.50;;;17.30;99.90;;;;;;5033443;28;20434;-60
2022/06/09 00:09:29;;;;;;;1.70;1.20;;;17.00;99.90;;;;;;5033426;28;20513;-60
2022/06/09 00:11:57;;;;;;;1.30;1.20;;;16.90;99.90;;;;;;5033316;28;20434;-59
2022/06/09 00:14:24;;;;;;;1.70;1.50;;;17.10;99.90;;;;;;5033082;28;20481;-59
2022/06/09 00:16:53;;;;;;;2.13;1.40;;;17.10;99.90;;;;;;5033247;28;20458;-60
2022/06/09 00:19:21;;;;;;;1.27;1.17;;;16.90;99.90;;;;;;5032835;28;20470;-60
2022/06/09 00:21:48;;;;;;;1.90;1.57;;;16.90;99.90;;;;;;5033033;28;20450;-59
2022/06/09 00:24:17;;;;;;;1.50;1.40;;;16.80;99.90;;;;;;5032992;28;20476;-60
2022/06/09 00:26:44;;;;;;;1.47;1.37;;;17.00;99.90;;;;;;5033113;28;20458;-59
2022/06/09 00:29:12;;;;;;;1.60;1.20;;;17.20;99.90;;;;;;5033135;28;20485;-60
2022/06/09 00:31:39;;;;;;;2.07;1.27;;;17.30;99.90;;;;;;5033159;28;20476;-59
2022/06/09 00:34:09;;;;;;;1.20;1.10;;;17.40;99.90;;;;;;5033118;28;20450;-60
2022/06/09 00:36:36;;;;;;;1.37;1.27;;;17.70;99.90;;;;;;5033250;28;20456;-60
2022/06/09 00:39:04;;;;;;;1.57;1.43;;;17.60;99.90;;;;;;5033145;28;20477;-60
2022/06/09 00:41:38;;;;;;;1.40;1.23;;;17.70;99.90;;;;;;5032866;28;20802;-60
2022/06/09 00:44:17;;;;;;;1.80;1.33;;;17.70;99.90;;;;;;5033200;28;20439;-60
2022/06/09 00:46:44;;;;;;;2.57;1.40;;;17.10;99.90;;;;;;5033280;28;20446;-60
2022/06/09 00:49:18;;;;;;;1.50;1.40;;;16.90;99.90;;;;;;5032660;28;20493;-60
2022/06/09 00:51:48;;;;;;;1.60;1.50;;;17.30;99.90;;;;;;5032687;28;20430;-61
2022/06/09 00:54:19;;;;;;;1.40;1.30;;;17.30;99.90;;;;;;5032735;28;20540;-62
2022/06/09 00:56:51;;;;;;;1.40;1.30;;;17.00;99.90;;;;;;5032758;28;20446;-61
2022/06/09 00:59:20;;;;;;;7.33;1.30;;;17.00;99.90;;;;;;5032963;28;20577;-61
2022/06/09 01:01:48;;;;;;;1.93;1.13;;;17.10;99.90;;;;;;5032868;28;20496;-61
2022/06/09 01:04:18;;;;;;;1.37;1.20;;;17.00;99.90;;;;;;5032915;28;20450;-60
2022/06/09 01:06:49;;;;;;;1.50;1.40;;;17.10;99.90;;;;;;5032548;28;20525;-60
2022/06/09 01:09:18;;;;;;;1.60;1.47;;;16.90;99.90;;;;;;5031679;28;20574;-61
2022/06/09 01:11:47;;;;;;;3.10;1.40;;;17.50;99.90;;;;;;5034909;28;20429;-61
2022/06/09 01:14:17;;;;;;;1.50;1.40;;;17.50;99.90;;;;;;5036112;28;20456;-61
2022/06/09 01:16:57;;;;;;;1.20;1.10;;;17.30;99.90;;;;;;5036011;28;20454;-61
2022/06/09 01:19:41;;;;;;;1.33;1.23;;;17.60;99.90;;;;;;5035802;28;20466;-60
2022/06/09 01:22:38;;;;;;;1.93;1.10;;;17.50;99.90;;;;;;5036330;28;20434;-60
2022/06/09 01:25:51;;;;;;;1.33;1.20;;;16.90;99.90;;;;;;5036181;28;20435;-60
2022/06/09 01:28:40;;;;;;;1.33;1.23;;;16.90;99.90;;;;;;5035993;28;20470;-60
2022/06/09 01:31:14;;;;;;;1.30;1.20;;;16.80;99.90;;;;;;5036214;28;20860;-60
2022/06/09 01:33:48;;;;;;;1.43;1.23;;;17.40;99.90;;;;;;5035846;28;20430;-61
2022/06/09 01:36:21;;;;;;;1.33;1.23;;;17.10;99.90;;;;;;5035651;28;20431;-61
2022/06/09 01:38:50;;;;;;;1.47;1.00;;;17.10;99.90;;;;;;5035717;28;20840;-60
2022/06/09 01:41:18;;;;;;;1.30;1.10;;;16.70;99.90;;;;;;5035528;28;20457;-60
2022/06/09 01:43:47;;;;;;;3.23;1.40;;;16.40;99.90;;;;;;5035636;28;20541;-61
2022/06/09 01:46:21;;;;;;;1.70;1.40;;;16.50;99.90;;;;;;5035523;28;20473;-61
2022/06/09 01:48:51;;;;;;;1.40;1.30;;;16.40;99.90;;;;;;5035344;28;20485;-61
2022/06/09 01:51:22;;;;;;;2.27;1.23;;;16.60;99.90;;;;;;5035688;28;20449;-61
2022/06/09 01:53:53;;;;;;;1.87;1.37;;;16.50;99.90;;;;;;5035768;28;20517;-61
2022/06/09 01:56:24;;;;;;;1.70;1.20;;;16.10;99.90;;;;;;5035152;28;20533;-61
2022/06/09 01:58:56;;;;;;;3.10;1.77;;;16.50;99.90;;;;;;5035588;28;20458;-61
2022/06/09 02:01:29;;;;;;;1.47;1.37;;;16.50;99.90;;;;;;5035364;28;20793;-61
2022/06/09 02:04:00;;;;;;;3.27;1.53;;;16.30;99.90;;;;;;5035193;28;20864;-60
2022/06/09 02:06:28;;;;;;;1.97;1.50;;;16.20;99.90;;;;;;5035264;28;20474;-60
2022/06/09 02:08:55;;;;;;;1.60;1.23;;;16.10;99.90;;;;;;5035311;28;20905;-58
2022/06/09 02:11:23;;;;;;;3.13;1.37;;;16.30;99.90;;;;;;5035002;28;20882;-61
2022/06/09 02:13:55;;;;;;;2.70;1.67;;;16.40;99.90;;;;;;5035355;28;20541;-58
2022/06/09 02:16:25;;;;;;;3.93;1.60;;;16.60;99.90;;;;;;5035060;28;20434;-58
2022/06/09 02:18:56;;;;;;;3.67;1.60;;;16.50;99.90;;;;;;5034933;28;20458;-58
2022/06/09 02:21:26;;;;;;;1.60;1.50;;;16.50;99.90;;;;;;5035495;28;20450;-61
2022/06/09 02:23:54;;;;;;;1.30;1.20;;;16.10;99.90;;;;;;5033779;28;20431;-61
2022/06/09 02:26:22;;;;;;;1.60;1.20;;;16.20;99.90;;;;;;5034955;28;20525;-58
2022/06/09 02:28:49;;;;;;;1.83;1.63;;;16.20;99.90;;;;;;5034832;28;20494;-59
2022/06/09 02:31:18;;;;;;;1.70;1.60;;;16.00;99.90;;;;;;5034975;28;20450;-61
2022/06/09 02:33:46;;;;;;;3.87;2.13;;;15.80;99.90;;;;;;5034839;28;20504;-59
2022/06/09 02:36:13;;;;;;;2.00;1.70;;;15.70;99.90;;;;;;5034873;28;20434;-59
2022/06/09 02:38:40;;;;;;;1.53;1.43;;;15.80;99.90;;;;;;5034715;28;20481;-58
2022/06/09 02:41:08;;;;;;;1.40;1.30;;;16.00;99.90;;;;;;5034841;28;20446;-58
2022/06/09 02:43:35;;;;;;;3.20;1.70;;;16.00;99.90;;;;;;5034636;28;20457;-59
2022/06/09 02:46:03;;;;;;;4.10;1.77;;;16.00;99.90;;;;;;5034765;28;20456;-59
2022/06/09 02:48:30;;;;;;;2.27;1.47;;;15.80;99.90;;;;;;5034403;28;20478;-59
2022/06/09 02:51:14;;;;;;;3.27;1.30;;;15.80;99.90;;;;;;5034679;28;20457;-59
2022/06/09 02:53:41;;;;;;;2.00;1.80;;;15.60;99.90;;;;;;5034498;28;20450;-59
2022/06/09 02:56:08;;;;;;;2.27;2.07;;;16.20;99.90;;;;;;5024727;28;20521;-60
2022/06/09 02:58:35;;;;;;;2.70;1.67;;;16.00;99.90;;;;;;5014560;28;20450;-59
2022/06/09 03:01:02;;;;;;;3.90;2.10;;;16.20;99.90;;;;;;5014416;28;20937;-59
2022/06/09 03:03:29;;;;;;;2.00;1.83;;;15.80;99.90;;;;;;5014544;28;20478;-59
2022/06/09 03:05:57;;;;;;;1.47;1.37;;;15.70;99.90;;;;;;5014317;28;20453;-59
2022/06/09 03:08:26;;;;;;;2.30;2.10;;;15.80;99.90;;;;;;5014073;28;20487;-59
2022/06/09 03:10:53;;;;;;;2.13;1.80;;;15.90;99.90;;;;;;5014014;28;20574;-59
2022/06/09 03:13:20;;;;;;;3.20;1.60;;;16.00;99.90;;;;;;5014361;28;20451;-59
2022/06/09 03:15:50;;;;;;;4.30;2.00;;;15.80;99.90;;;;;;5014461;28;20447;-58
2022/06/09 03:18:17;;;;;;;3.50;1.83;;;15.60;99.90;;;;;;5014132;28;20503;-59
2022/06/09 03:20:46;;;;;;;1.53;1.30;;;15.70;99.90;;;;;;5014344;28;20447;-59
2022/06/09 03:23:14;;;;;;;4.33;2.00;;;15.70;99.90;;;;;;5014208;28;20447;-59
2022/06/09 03:25:42;;;;;;;1.93;1.67;;;15.60;99.90;;;;;;5013868;28;20451;-59
2022/06/09 03:28:10;;;;;;;3.27;2.27;;;15.50;99.90;;;;;;5013787;28;20533;-59
2022/06/09 03:30:37;;;;;;;3.27;1.77;;;15.70;99.90;;;;;;5014157;28;20467;-59
2022/06/09 03:33:04;;;;;;;7.57;3.17;;;16.10;99.90;;;;;;5014152;28;20447;-59
2022/06/09 03:35:32;;;;;;;2.30;1.87;;;15.70;99.90;;;;;;5013660;28;20450;-59
2022/06/09 03:37:59;;;;;;;3.43;2.03;;;15.80;99.90;;;;;;5014074;28;20463;-59
2022/06/09 03:40:29;;;;;;;2.10;1.90;;;16.10;99.90;;;;;;5013895;28;20471;-59
2022/06/09 03:42:56;;;;;;;4.00;1.90;;;15.90;99.90;;;;;;5013816;28;20862;-59
2022/06/09 03:45:23;;;;;;;2.60;2.30;;;15.70;99.90;;;;;;5013522;28;20506;-59
2022/06/09 03:47:51;;;;;;;2.70;1.60;;;15.80;99.90;;;;;;5014078;28;20451;-59
2022/06/09 03:50:21;;;;;;;2.30;1.57;;;16.10;99.90;;;;;;5013486;28;20528;-59
2022/06/09 03:52:48;;;;;;;2.30;2.10;;;16.30;99.90;;;;;;5013864;28;20467;-59
2022/06/09 03:55:16;;;;;;;2.80;2.27;;;16.10;99.90;;;;;;5013614;28;20459;-59
2022/06/09 03:57:45;;;;;;;2.40;2.03;;;16.10;99.90;;;;;;5013574;28;20461;-59
2022/06/09 04:00:16;;;;;;;5.00;2.07;;;16.20;99.90;;;;;;5013355;28;20494;-58
2022/06/09 04:02:43;;;;;;;2.23;2.03;;;16.00;99.90;;;;;;5013538;28;20452;-59
2022/06/09 04:05:13;;;;;;;5.40;2.00;;;15.80;99.90;;;;;;5013637;28;20455;-59
2022/06/09 04:07:41;;;;;;;2.37;2.17;;;15.70;99.90;;;;;;5013579;28;20901;-59
2022/06/09 04:10:11;;;;;;;2.63;2.23;;;15.80;99.90;;;;;;5013199;28;20498;-59
2022/06/09 04:12:38;;;;;;;3.83;2.33;;;16.00;99.90;;;;;;5013423;28;21017;-59
2022/06/09 04:15:08;;;;;;;1.77;1.63;;;16.20;99.90;;;;;;5013285;28;20518;-59
2022/06/09 04:17:35;;;;;;;3.53;2.53;;;16.10;99.90;;;;;;5013541;28;20458;-59
2022/06/09 04:20:02;;;;;;;3.90;2.03;;;15.80;99.90;;;;;;5013329;28;20852;-59
2022/06/09 04:22:29;;;;;;;6.60;2.33;;;16.10;99.90;;;;;;5013763;28;20455;-60
2022/06/09 04:24:56;;;;;;;3.10;2.47;;;16.10;99.90;;;;;;5013467;28;20909;-60
2022/06/09 04:27:24;;;;;;;2.43;2.23;;;15.80;99.90;;;;;;5013553;28;20447;-59
2022/06/09 04:29:52;;;;;;;2.60;2.00;;;15.80;99.90;;;;;;5013009;28;20614;-59
2022/06/09 04:32:20;;;;;;;2.43;2.00;;;15.80;99.90;;;;;;5013355;28;20454;-60
2022/06/09 04:34:48;;;;;;;2.00;1.70;;;15.70;99.90;;;;;;5013127;28;20527;-60
2022/06/09 04:37:15;;;;;;;2.90;2.10;;;16.00;99.90;;;;;;5013750;28;20455;-59
2022/06/09 04:39:42;;;;;;;2.27;2.07;;;16.30;99.90;;;;;;5013443;28;20961;-60
2022/06/09 04:42:10;;;;;;;3.10;2.20;;;16.30;99.90;;;;;;5013443;28;20459;-60
2022/06/09 04:44:37;;;;;;;4.57;2.10;;;15.80;99.90;;;;;;5013256;28;20458;-59
2022/06/09 04:47:04;;;;;;;2.87;2.00;;;16.30;99.90;;;;;;5016168;28;20447;-60
2022/06/09 04:49:33;;;;;;;2.63;2.10;;;16.30;99.90;;;;;;5016839;28;20491;-60
2022/06/09 04:52:00;;;;;;;3.80;1.90;;;16.60;99.90;;;;;;5016810;28;20497;-60
2022/06/09 04:54:27;;;;;;;4.00;2.23;;;16.60;99.90;;;;;;5016619;28;20938;-60
2022/06/09 04:56:54;;;;;;;2.57;1.90;;;16.40;99.90;;;;;;5032691;28;20449;-60
2022/06/09 04:59:21;;;;;;;2.40;1.77;;;16.20;99.90;;;;;;5036483;28;20466;-60
2022/06/09 05:01:48;;;;;;;2.57;2.00;;;16.10;99.90;;;;;;5036654;28;20446;-60
2022/06/09 05:04:15;;;;;;;2.40;2.03;;;16.30;99.90;;;;;;5036504;28;20450;-60
2022/06/09 05:06:44;;;;;;;2.93;2.73;;;16.00;99.90;;;;;;5036535;28;20845;-60
2022/06/09 05:09:11;;;;;;;3.37;1.73;;;15.90;99.90;;;;;;5036004;28;20976;-60
2022/06/09 05:11:38;;;;;;;5.17;2.33;;;16.40;99.90;;;;;;5036463;28;20427;-59
2022/06/09 05:14:05;;;;;;;3.00;1.53;;;16.40;99.90;;;;;;5036046;28;20446;-59
2022/06/09 05:16:32;;;;;;;4.60;1.93;;;16.40;99.90;;;;;;5036272;28;20457;-59
2022/06/09 05:18:59;;;;;;;2.23;1.60;;;16.40;99.90;;;;;;5035878;28;20481;-60
2022/06/09 05:21:27;;;;;;;8.50;3.20;;;16.10;99.90;;;;;;5035905;28;20509;-60
2022/06/09 05:23:55;;;;;;;3.03;2.40;;;16.00;99.90;;;;;;5036191;28;20540;-60
2022/06/09 05:26:23;;;;;;;3.90;2.00;;;16.00;99.90;;;;;;5035653;28;20446;-60
2022/06/09 05:28:50;;;;;;;6.67;2.20;;;16.10;99.90;;;;;;5035665;28;20572;-59
2022/06/09 05:31:17;;;;;;;2.50;1.77;;;16.20;99.90;;;;;;5035972;28;20446;-59
2022/06/09 05:33:44;;;;;;;2.83;1.60;;;16.20;99.90;;;;;;5035533;28;20446;-59
2022/06/09 05:36:11;;;;;;;1.80;1.70;;;16.20;99.90;;;;;;5035768;28;20454;-59
2022/06/09 05:46:55;;;;;;;2.27;2.00;;;17.00;99.90;;;;;;5035415;28;20774;-59
2022/06/09 05:49:22;;;;;;;6.00;2.50;;;17.10;99.90;;;;;;5035036;28;20573;-59
2022/06/09 05:51:52;;;;;;;6.03;2.07;;;16.70;99.90;;;;;;5035255;28;20809;-60
2022/06/09 05:54:19;;;;;;;4.90;2.50;;;16.70;99.90;;;;;;5035572;28;20454;-60
2022/06/09 05:56:48;;;;;;;4.33;2.00;;;16.70;99.90;;;;;;5035250;28;20450;-60
2022/06/09 05:59:15;;;;;;;5.40;1.93;;;16.80;99.90;;;;;;5035073;28;20594;-60
2022/06/09 06:01:43;;;;;;;3.17;1.50;;;17.40;99.90;;;;;;5035180;28;20470;-61
2022/06/09 06:04:11;;;;;;;2.70;1.80;;;17.30;99.90;;;;;;5035074;28;20427;-60
2022/06/09 06:06:38;;;;;;;2.20;2.00;;;17.70;99.90;;;;;;5034879;28;20446;-60
2022/06/09 06:09:07;;;;;;;9.33;2.27;;;18.00;99.90;;;;;;5034518;28;20851;-61
2022/06/09 06:11:36;;;;;;;2.73;2.20;;;17.70;99.90;;;;;;5034968;28;20430;-61
2022/06/09 06:14:06;;;;;;;1.70;1.60;;;17.30;99.90;;;;;;5034659;28;20999;-60
2022/06/09 06:16:33;;;;;;;2.77;2.20;;;17.60;99.90;;;;;;5035072;28;20450;-60
2022/06/09 06:19:00;;;;;;;1.60;1.50;;;17.30;99.90;;;;;;5034500;28;21003;-60
2022/06/09 06:21:28;;;;;;;5.27;2.00;;;17.40;99.90;;;;;;5035095;28;20548;-60
2022/06/09 06:23:55;;;;;;;2.03;1.63;;;17.60;99.90;;;;;;5034723;28;20446;-60
2022/06/09 06:26:22;;;;;;;5.30;2.00;;;17.90;99.90;;;;;;5034903;28;20454;-60
2022/06/09 06:28:50;;;;;;;5.90;2.37;;;17.90;99.90;;;;;;5034291;28;20485;-60
2022/06/09 06:31:19;;;;;;;2.03;1.57;;;17.80;99.90;;;;;;5034491;28;20460;-60
2022/06/09 06:33:46;;;;;;;4.17;2.00;;;17.50;99.90;;;;;;5034495;28;20872;-61
2022/06/09 06:36:14;;;;;;;5.83;2.07;;;17.50;99.90;;;;;;5034563;28;20937;-61
2022/06/09 06:38:42;;;;;;;2.23;1.90;;;17.50;99.90;;;;;;5034171;28;21038;-60
2022/06/09 06:41:11;;;;;;;1.97;1.77;;;18.40;99.90;;;;;;5034311;28;20478;-61
2022/06/09 06:43:39;;;;;;;2.90;1.80;;;18.20;99.90;;;;;;5034477;28;20450;-60
2022/06/09 06:46:06;;;;;;;4.27;2.20;;;18.00;99.90;;;;;;5034680;28;20447;-61
2022/06/09 06:48:35;;;;;;;3.97;2.13;;;18.30;99.90;;;;;;5034379;28;20457;-60
2022/06/09 06:51:05;;;;;;;5.10;1.57;;;18.10;99.90;;;;;;5034393;28;20569;-61
2022/06/09 06:53:32;;;;;;;4.07;1.80;;;18.50;99.90;;;;;;5034049;28;20458;-61
2022/06/09 06:56:00;;;;;;;7.63;2.07;;;18.80;99.90;;;;;;5025582;28;20451;-62
2022/06/09 06:58:27;;;;;;;7.23;2.23;;;18.50;99.90;;;;;;5014444;28;20451;-61
2022/06/09 07:00:56;;;;;;;5.10;1.93;;;18.00;99.90;;;;;;5014222;28;20536;-61
2022/06/09 07:03:23;;;;;;;3.60;2.10;;;18.50;99.90;;;;;;5014191;28;20949;-62
2022/06/09 07:05:52;;;;;;;2.13;1.70;;;18.70;99.90;;;;;;5014062;28;20538;-61
2022/06/09 07:08:19;;;;;;;2.73;1.87;;;19.70;99.90;;;;;;5013448;28;20516;-61
2022/06/09 07:10:47;;;;;;;3.57;1.93;;;19.60;99.90;;;;;;5013709;28;20604;-61
2022/06/09 07:13:15;;;;;;;6.10;2.20;;;20.00;99.90;;;;;;5014222;28;20447;-62
2022/06/09 07:15:42;;;;;;;2.73;1.87;;;19.90;99.90;;;;;;5014379;28;20853;-61
2022/06/09 07:18:10;;;;;;;5.50;2.10;;;19.40;99.90;;;;;;5014105;28;20475;-61
2022/06/09 07:20:37;;;;;;;4.80;1.90;;;19.10;99.90;;;;;;5013630;28;20463;-61
2022/06/09 07:23:06;;;;;;;3.73;2.00;;;19.90;99.90;;;;;;5014003;28;20874;-61
2022/06/09 07:25:33;;;;;;;3.80;1.93;;;20.60;99.90;;;;;;5013685;28;20979;-62
2022/06/09 07:28:00;;;;;;;3.83;1.70;;;21.80;99.90;;;;;;5013742;28;20501;-61
2022/06/09 07:30:28;;;;;;;3.93;2.07;;;21.50;99.90;;;;;;5013991;28;20534;-61
2022/06/09 07:32:56;;;;;;;3.93;1.80;;;20.80;99.90;;;;;;5013487;28;20455;-61
2022/06/09 07:35:26;;;;;;;4.20;1.80;;;21.20;99.90;;;;;;5013957;28;20490;-61
2022/06/09 07:37:54;;;;;;;4.43;2.20;;;21.50;99.90;;;;;;5013379;28;21037;-61
2022/06/09 07:40:23;;;;;;;3.33;1.87;;;21.70;99.90;;;;;;5013460;28;20463;-61
2022/06/09 07:42:50;;;;;;;2.67;2.00;;;21.80;99.90;;;;;;5013451;28;20550;-61
2022/06/09 07:45:18;;;;;;;4.73;2.13;;;22.00;99.90;;;;;;5013515;28;20892;-61
2022/06/09 07:47:45;;;;;;;3.03;1.93;;;21.40;99.90;;;;;;5013474;28;20465;-61
2022/06/09 07:50:14;;;;;;;2.00;1.60;;;22.00;99.90;;;;;;5013287;28;20483;-61
2022/06/09 07:52:43;;;;;;;2.87;1.77;;;22.20;99.90;;;;;;5013396;28;20435;-62
2022/06/09 07:55:11;;;;;;;5.50;1.63;;;23.10;99.90;;;;;;5013055;28;20950;-62
2022/06/09 07:57:39;;;;;;;3.17;1.93;;;21.80;99.90;;;;;;5013464;28;20451;-61
2022/06/09 08:00:09;;;;;;;3.40;2.00;;;22.40;99.90;;;;;;5013013;28;20546;-61
2022/06/09 08:02:37;;;;;;;3.03;2.00;;;22.90;99.90;;;;;;5013332;28;20447;-62
2022/06/09 08:05:05;;;;;;;3.67;1.70;;;23.60;99.90;;;;;;5012717;28;20869;-62
2022/06/09 08:07:32;;;;;;;9.60;2.27;;;23.10;99.30;;;;;;5013290;28;20530;-62
2022/06/09 08:09:59;;;;;;;2.73;1.90;;;22.30;99.80;;;;;;5012721;28;20578;-62
2022/06/09 08:12:26;;;;;;;4.53;2.00;;;22.30;99.90;;;;;;5013554;28;20505;-61
2022/06/09 08:14:55;;;;;;;3.00;1.93;;;22.10;99.90;;;;;;5013056;28;20549;-61
2022/06/09 08:17:23;;;;;;;2.90;1.93;;;22.20;99.90;;;;;;5013335;28;20534;-62
2022/06/09 08:19:50;;;;;;;3.63;1.77;;;23.30;98.90;;;;;;5013285;28;20486;-61
2022/06/09 08:22:18;;;;;;;2.90;1.80;;;23.20;99.80;;;;;;5016421;28;20517;-61
2022/06/09 08:24:47;;;;;;;3.83;2.00;;;22.90;98.10;;;;;;5017372;28;20458;-61
2022/06/09 08:27:14;;;;;;;3.53;1.80;;;22.60;99.90;;;;;;5017239;28;20462;-61
2022/06/09 08:29:42;;;;;;;3.27;1.80;;;23.60;99.10;;;;;;5016973;28;20475;-62
2022/06/09 08:32:11;;;;;;;9.17;2.23;;;24.50;97.40;;;;;;5017075;28;20451;-61
2022/06/09 08:34:38;;;;;;;2.33;1.67;;;24.50;97.90;;;;;;5017094;28;20454;-61
2022/06/09 08:37:05;;;;;;;2.80;1.80;;;24.80;97.20;;;;;;5017398;28;20475;-61
2022/06/09 08:39:33;;;;;;;6.40;1.63;;;24.70;97.70;;;;;;5016664;28;20483;-61
2022/06/09 08:42:13;;;;;;;4.40;1.47;;;23.30;96.80;;;;;;5017202;28;20526;-61
2022/06/09 08:44:49;;;;;;;3.40;1.80;;;21.00;99.20;;;;;;5016630;28;20506;-61
2022/06/09 08:47:26;;;;;;;6.70;1.77;;;22.00;99.90;;;;;;5017047;28;20443;-61
2022/06/09 08:50:02;;;;;;;5.93;2.20;;;22.30;98.60;;;;;;5016918;28;20581;-61
2022/06/09 08:52:47;;;;;;;1.93;1.70;;;22.00;98.80;;;;;;5016808;28;20431;-61
2022/06/09 08:55:28;;;;;;;1.87;1.57;;;22.10;99.90;;;;;;5016874;28;20466;-61
2022/06/09 08:58:00;;;;;;;5.07;1.90;;;22.50;99.20;;;;;;5016823;28;20462;-61
2022/06/09 09:00:34;;;;;;;8.97;1.70;;;22.00;97.60;;;;;;5016454;28;20562;-61
2022/06/09 09:03:05;;;;;;;6.87;3.07;;;;;;;;;;5016486;28;20467;-60
2022/06/09 09:05:37;;;;;;;7.33;1.77;;;23.10;98.40;;;;;;5016470;28;20510;-61
2022/06/09 09:08:07;;;;;;;2.50;1.57;;;23.10;96.70;;;;;;5016478;28;20443;-61
2022/06/09 09:10:47;;;;;;;3.70;1.90;;;23.10;97.40;;;;;;5016134;28;20850;-60
2022/06/09 09:13:30;;;;;;;3.97;1.50;;;23.60;95.80;;;;;;5016336;28;20485;-62
2022/06/09 09:16:02;;;;;;;3.70;1.70;;;23.00;95.50;;;;;;5016289;28;20906;-61
2022/06/09 09:18:39;;;;;;;2.83;1.77;;;23.50;97.00;;;;;;5016556;28;20428;-61
2022/06/09 09:21:29;;;;;;;2.53;1.70;;;22.30;96.40;;;;;;5016053;28;20848;-61
2022/06/09 09:24:07;;;;;;;5.60;1.67;;;20.70;98.70;;;;;;5016362;28;20478;-61
2022/06/09 09:26:49;;;;;;;4.00;2.00;;;21.70;97.40;;;;;;5016117;28;20442;-61
2022/06/09 09:29:24;;;;;;;9.70;2.27;;;21.90;98.00;;;;;;5016241;28;20474;-61
2022/06/09 09:31:55;;;;;;;5.50;1.40;;;23.50;96.80;;;;;;5015386;28;20506;-61
2022/06/09 09:34:26;;;;;;;4.27;2.03;;;23.50;95.90;;;;;;5016294;28;20973;-60
2022/06/09 09:37:02;;;;;;;2.77;1.60;;;23.60;95.40;;;;;;5016109;28;20454;-61
2022/06/09 09:39:41;;;;;;;3.30;1.50;;;23.80;96.30;;;;;;5015807;28;20485;-61
2022/06/09 09:42:15;;;;;;;4.23;1.90;;;24.00;96.30;;;;;;5015747;28;20474;-61
2022/06/09 09:45:14;;;;;;;3.63;2.07;;;23.50;95.80;;;;;;5015699;28;20427;-61
2022/06/09 09:47:48;;;;;;;2.70;2.00;;;23.10;96.00;;;;;;5015719;28;20440;-61
2022/06/09 09:50:26;;;;;;;3.77;1.60;;;24.20;96.20;;;;;;5015801;28;20522;-61
2022/06/09 09:53:00;;;;;;;2.20;1.97;;;24.70;95.60;;;;;;5015515;28;20450;-62
2022/06/09 09:55:34;;;;;;;2.13;1.33;;;25.10;95.70;;;;;;5019667;28;20449;-61
2022/06/09 09:58:34;;;;;;;9.53;3.40;;;24.20;94.20;;;;;;5035192;28;20437;-61
2022/06/09 10:01:04;;;;;;;4.07;1.50;;;24.70;94.50;;;;;;5035267;28;20518;-62
2022/06/09 10:09:18;;;;;;;4.50;1.60;;;25.20;92.30;;;;;;5035086;28;20848;-61
2022/06/09 10:11:54;;;;;;;2.90;2.03;;;24.50;93.50;;;;;;5034832;28;20972;-61
2022/06/09 10:14:43;;;;;;;6.40;2.03;;;24.50;93.10;;;;;;5034864;28;20441;-60
2022/06/09 10:17:31;;;;;;;2.30;1.47;;;24.00;93.10;;;;;;5035278;28;20463;-61
2022/06/09 10:20:06;;;;;;;3.50;1.90;;;23.30;93.90;;;;;;5035076;28;20553;-61
2022/06/09 10:22:37;;;;;;;3.47;1.70;;;23.90;93.70;;;;;;5034672;28;20411;-61
2022/06/09 10:25:17;;;;;;;1.40;1.30;;;23.90;93.60;;;;;;5034614;28;20437;-61
2022/06/09 10:27:46;;;;;;;5.13;2.03;;;23.60;94.10;;;;;;5034928;28;20617;-61
2022/06/09 10:30:18;;;;;;;3.63;1.70;;;22.10;93.00;;;;;;5034559;28;20860;-61
2022/06/09 10:32:55;;;;;;;4.20;1.60;;;22.50;97.20;;;;;;5034674;28;20430;-61
2022/06/09 10:35:32;;;;;;;1.50;1.30;;;23.50;93.60;;;;;;5034736;28;20790;-61
2022/06/09 10:38:08;;;;;;;4.37;1.67;;;24.50;93.00;;;;;;5034833;28;20456;-61
2022/06/09 10:40:41;;;;;;;2.47;1.70;;;25.00;93.40;;;;;;5034628;28;20465;-61
2022/06/09 10:43:18;;;;;;;4.03;1.80;;;24.50;92.70;;;;;;5034226;28;20430;-61
2022/06/09 10:45:50;;;;;;;2.10;1.70;;;24.20;93.60;;;;;;5034081;28;20450;-61
2022/06/09 10:57:06;;;;;;;2.90;1.40;;;25.00;89.50;;;;;;4991997;28;20881;-61
2022/06/09 10:59:40;;;;;;;4.53;2.00;;;25.20;89.40;;;;;;5014335;28;20466;-62
2022/06/09 11:02:14;;;;;;;2.20;1.70;;;26.20;90.10;;;;;;5014315;28;20552;-62
2022/06/09 11:04:42;;;;;;;2.00;1.40;;;25.90;89.20;;;;;;5014171;28;20431;-61
2022/06/09 11:07:27;;;;;;;1.80;1.60;;;26.50;90.30;;;;;;5014124;28;20443;-61
2022/06/09 11:10:05;;;;;;;3.40;1.90;;;25.60;89.60;;;;;;5014015;28;20485;-62
2022/06/09 11:12:46;;;;;;;5.70;2.33;;;24.60;86.90;;;;;;5014362;28;20554;-61
2022/06/09 11:15:27;;;;;;;2.97;1.47;;;23.90;90.30;;;;;;5014039;28;20431;-61
2022/06/09 11:18:10;;;;;;;3.70;2.00;;;23.50;91.20;;;;;;5014297;28;20432;-61
2022/06/09 11:20:51;;;;;;;2.77;1.70;;;24.00;91.80;;;;;;5014169;28;20481;-61
2022/06/09 11:23:30;;;;;;;9.07;2.50;;;25.00;91.40;;;;;;5014043;28;20875;-61
2022/06/09 11:26:11;;;;;;;4.30;1.53;;;25.10;90.00;;;;;;5021774;28;20438;-61
2022/06/09 11:28:51;;;;;;;5.97;2.53;;;25.40;91.20;;;;;;5033791;28;20466;-62
2022/06/09 11:31:50;;;;;;;3.87;1.50;;;25.00;91.80;;;;;;5033829;28;20466;-61
2022/06/09 11:34:41;;;;;;;5.60;1.83;;;25.80;90.80;;;;;;5031219;28;20609;-61
2022/06/09 11:37:19;;;;;;;6.13;1.60;;;25.20;90.00;;;;;;5033474;28;20533;-61
2022/06/09 11:39:57;;;;;;;8.70;2.47;;;25.00;90.20;;;;;;5033590;28;20461;-61
2022/06/09 11:42:42;;;;;;;4.00;1.80;;;24.90;90.40;;;;;;5033740;28;20897;-61
2022/06/09 11:45:24;;;;;;;3.30;1.50;;;24.20;90.80;;;;;;5033566;28;20836;-61
2022/06/09 11:47:53;;;;;;;3.10;2.00;;;23.40;91.20;;;;;;5033542;28;20435;-61
2022/06/09 11:50:25;;;;;;;4.50;1.83;;;23.10;92.40;;;;;;5033380;28;20466;-61
2022/06/09 11:52:53;;;;;;;2.77;1.83;;;22.70;92.10;;;;;;5033435;28;20813;-61
2022/06/09 11:58:43;;;;;;;3.33;1.77;;;23.80;91.90;;;;;;5013301;28;21025;-61
2022/06/09 12:01:26;;;;;;;2.67;1.80;;;24.50;91.30;;;;;;5013494;28;20443;-61
2022/06/09 12:04:08;;;;;;;2.50;1.70;;;25.10;91.60;;;;;;5013513;28;20538;-61
2022/06/09 12:06:51;;;;;;;3.23;1.93;;;25.20;89.30;;;;;;5013525;28;20523;-61
2022/06/09 12:09:25;;;;;;;3.10;1.60;;;25.30;87.60;;;;;;5013420;28;20957;-61
2022/06/09 12:11:57;;;;;;;2.70;1.67;;;24.90;88.20;;;;;;5013286;28;20471;-61
2022/06/09 12:14:30;;;;;;;4.90;1.93;;;25.00;89.40;;;;;;5013224;28;20894;-62
2022/06/09 12:17:05;;;;;;;5.33;1.77;;;25.00;87.70;;;;;;5013258;28;20467;-61
2022/06/09 12:19:36;;;;;;;3.23;1.87;;;24.40;86.80;;;;;;5013095;28;20549;-61
2022/06/09 12:22:32;;;;;;;3.73;1.57;;;24.20;89.40;;;;;;5013659;28;20450;-61
2022/06/09 12:25:21;;;;;;;2.10;1.57;;;24.40;90.10;;;;;;5009241;28;21049;-61
2022/06/09 12:27:50;;;;;;;2.33;1.70;;;24.60;90.20;;;;;;5013260;28;20431;-61
2022/06/09 12:30:35;;;;;;;3.17;1.83;;;23.90;85.20;;;;;;5013322;28;20471;-61
2022/06/09 12:33:32;;;;;;;2.33;1.40;;;24.60;87.10;;;;;;5013112;28;21016;-61
2022/06/09 12:36:03;;;;;;;1.77;1.50;;;25.30;86.00;;;;;;5013174;28;20431;-61
2022/06/09 12:38:36;;;;;;;2.23;1.60;;;24.90;83.40;;;;;;5013114;28;20545;-61
2022/06/09 12:41:13;;;;;;;4.60;1.60;;;24.50;86.10;;;;;;5013303;28;20488;-61
2022/06/09 12:43:43;;;;;;;4.77;1.87;;;24.60;86.70;;;;;;5013543;28;20461;-61
2022/06/09 12:46:23;;;;;;;4.13;1.73;;;24.80;84.20;;;;;;5012793;28;20902;-60
2022/06/09 12:48:53;;;;;;;3.23;1.50;;;25.10;86.00;;;;;;5012910;28;20470;-60
2022/06/09 12:51:27;;;;;;;3.20;1.60;;;25.50;84.00;;;;;;5012751;28;20482;-60
2022/06/09 12:53:57;;;;;;;4.30;2.07;;;25.00;82.80;;;;;;5012861;28;20439;-61
2022/06/09 12:56:30;;;;;;;3.07;1.87;;;25.30;82.70;;;;;;5013010;28;20524;-60
2022/06/09 12:58:58;;;;;;;4.33;2.00;;;25.30;83.50;;;;;;5012824;28;20485;-60
2022/06/09 13:01:29;;;;;;;4.23;1.60;;;24.70;86.30;;;;;;5013102;28;20926;-60
2022/06/09 13:04:00;;;;;;;2.90;1.50;;;25.10;85.40;;;;;;5012588;28;20526;-61
2022/06/09 13:06:30;;;;;;;3.70;1.37;;;25.40;85.40;;;;;;5012998;28;20443;-61
2022/06/09 13:09:00;;;;;;;2.03;1.70;;;24.50;85.50;;;;;;5016695;28;20569;-60
2022/06/09 13:14:20;;;;;;;3.40;2.13;;;24.10;84.90;;;;;;5016274;28;20430;-61
2022/06/09 13:16:51;;;;;;;2.90;1.60;;;23.90;86.80;;;;;;5016639;28;20432;-60
2022/06/09 13:19:20;;;;;;;3.47;2.00;;;23.90;86.00;;;;;;5016523;28;20470;-60
2022/06/09 13:21:49;;;;;;;2.10;1.90;;;24.40;83.50;;;;;;5016090;28;20526;-60
2022/06/09 13:24:22;;;;;;;3.80;1.90;;;24.70;84.50;;;;;;5016327;28;20439;-61
2022/06/09 13:26:51;;;;;;;5.77;2.10;;;24.40;80.40;;;;;;5016018;28;20497;-61
2022/06/09 13:29:22;;;;;;;2.70;1.80;;;24.50;84.80;;;;;;5016016;28;20471;-60
2022/06/09 13:31:53;;;;;;;2.77;2.00;;;23.60;80.70;;;;;;5015924;28;20471;-60
2022/06/09 13:34:31;;;;;;;4.00;2.10;;;23.30;87.20;;;;;;5016302;28;20897;-60
2022/06/09 13:37:15;;;;;;;4.70;2.63;;;23.30;86.20;;;;;;5016210;28;20856;-60
2022/06/09 13:39:49;;;;;;;4.33;2.20;;;23.90;86.90;;;;;;5016346;28;20553;-61